createdAt,value
2018-09-25T00:01:54.226Z,10.23
2018-09-25T00:04:27.708Z,10.40
2018-09-25T00:07:01.168Z,9.50
2018-09-25T00:09:34.636Z,10.93
2018-09-25T00:12:08.110Z,10.10
2018-09-25T00:14:41.591Z,9.43
2018-09-25T00:17:15.116Z,9.97
2018-09-25T00:19:48.571Z,9.53
2018-09-25T00:22:22.103Z,10.27
2018-09-25T00:24:55.558Z,10.10
2018-09-25T00:27:29.108Z,9.67
2018-09-25T00:30:02.623Z,10.50
2018-09-25T00:32:36.111Z,10.10
2018-09-25T00:35:09.655Z,10.67
2018-09-25T00:37:43.142Z,10.00
2018-09-25T00:40:16.637Z,9.97
2018-09-25T00:42:50.093Z,10.40
2018-09-25T00:45:23.559Z,10.03
2018-09-25T00:47:57.048Z,9.87
2018-09-25T00:50:30.604Z,10.60
2018-09-25T00:53:04.149Z,11.30
2018-09-25T00:55:37.619Z,10.87
2018-09-25T00:58:11.166Z,11.70
2018-09-25T01:00:44.649Z,10.53
2018-09-25T01:03:18.230Z,10.50
2018-09-25T01:05:51.651Z,10.40
2018-09-25T01:08:25.092Z,10.97
2018-09-25T01:10:58.591Z,11.20
2018-09-25T01:13:32.056Z,10.90
2018-09-25T01:16:05.508Z,11.10
2018-09-25T01:18:39.036Z,10.60
2018-09-25T01:21:12.814Z,10.63
2018-09-25T01:23:46.416Z,11.77
2018-09-25T01:26:20.056Z,10.93
2018-09-25T01:28:53.606Z,11.40
2018-09-25T01:31:27.132Z,11.70
2018-09-25T01:34:00.680Z,10.83
2018-09-25T01:36:34.171Z,11.03
2018-09-25T01:39:07.644Z,11.30
2018-09-25T01:41:41.120Z,10.40
2018-09-25T01:44:14.731Z,9.50
2018-09-25T01:46:48.300Z,10.20
2018-09-25T01:49:21.859Z,11.07
2018-09-25T01:51:55.404Z,11.20
2018-09-25T01:54:28.944Z,11.50
2018-09-25T01:57:02.419Z,10.30
2018-09-25T01:59:35.883Z,11.03
2018-09-25T02:02:09.422Z,11.17
2018-09-25T02:04:42.863Z,11.30
2018-09-25T02:07:16.386Z,11.30
2018-09-25T02:09:49.820Z,11.43
2018-09-25T02:12:23.300Z,10.60
2018-09-25T02:14:56.833Z,10.33
2018-09-25T02:17:30.252Z,10.43
2018-09-25T02:20:03.743Z,10.50
2018-09-25T02:22:37.243Z,10.70
2018-09-25T02:25:10.660Z,11.33
2018-09-25T02:27:44.184Z,10.73
2018-09-25T02:30:17.668Z,10.40
2018-09-25T02:32:51.248Z,11.43
2018-09-25T02:35:24.803Z,10.83
2018-09-25T02:37:58.423Z,11.10
2018-09-25T02:40:31.831Z,11.23
2018-09-25T02:43:05.379Z,10.87
2018-09-25T02:45:38.991Z,11.23
2018-09-25T02:48:12.555Z,10.93
2018-09-25T02:50:46.004Z,11.17
2018-09-25T02:53:19.525Z,10.77
2018-09-25T02:55:53.072Z,10.70
2018-09-25T02:58:26.560Z,10.80
2018-09-25T03:00:59.978Z,10.63
2018-09-25T03:03:33.524Z,10.97
2018-09-25T03:06:07.211Z,10.60
2018-09-25T03:08:40.607Z,10.97
2018-09-25T03:11:14.015Z,10.90
2018-09-25T03:13:47.562Z,10.80
2018-09-25T03:16:21.084Z,10.90
2018-09-25T03:18:54.547Z,11.30
2018-09-25T03:21:27.979Z,11.37
2018-09-25T03:24:01.653Z,11.33
2018-09-25T03:26:35.015Z,12.23
2018-09-25T03:29:08.534Z,12.33
2018-09-25T03:31:42.010Z,11.87
2018-09-25T03:34:15.577Z,10.90
2018-09-25T03:36:49.115Z,11.60
2018-09-25T03:39:22.688Z,11.70
2018-09-25T03:41:56.251Z,11.50
2018-09-25T03:44:29.839Z,11.70
2018-09-25T03:47:03.288Z,12.60
2018-09-25T03:49:36.767Z,13.87
2018-09-25T03:52:10.217Z,12.47
2018-09-25T03:54:43.723Z,12.20
2018-09-25T03:57:17.222Z,13.70
2018-09-25T03:59:50.706Z,13.60
2018-09-25T04:02:24.140Z,12.90
2018-09-25T04:04:57.711Z,12.80
2018-09-25T04:07:31.225Z,12.77
2018-09-25T04:10:04.727Z,13.30
2018-09-25T04:12:38.167Z,14.20
2018-09-25T04:15:11.728Z,12.57
2018-09-25T04:17:45.199Z,14.43
2018-09-25T04:20:18.711Z,14.20
2018-09-25T04:22:52.163Z,15.13
2018-09-25T04:25:25.729Z,14.70
2018-09-25T04:27:59.276Z,15.23
2018-09-25T04:30:32.707Z,14.20
2018-09-25T04:33:06.156Z,15.00
2018-09-25T04:35:39.565Z,15.50
2018-09-25T04:38:13.129Z,13.70
2018-09-25T04:40:46.605Z,14.13
2018-09-25T04:43:20.127Z,13.00
2018-09-25T04:45:53.711Z,14.63
2018-09-25T04:48:27.145Z,13.87
2018-09-25T04:51:00.473Z,13.70
2018-09-25T04:53:33.975Z,12.47
2018-09-25T04:56:07.608Z,12.80
2018-09-25T04:58:41.140Z,14.10
2018-09-25T05:01:14.824Z,13.27
2018-09-25T05:03:48.177Z,13.63
2018-09-25T05:06:21.739Z,12.90
2018-09-25T05:08:55.157Z,14.50
2018-09-25T05:11:28.648Z,13.90
2018-09-25T05:14:02.144Z,13.77
2018-09-25T05:16:35.608Z,18.77
2018-09-25T05:19:09.191Z,17.10
2018-09-25T05:21:42.596Z,14.20
2018-09-25T05:24:16.025Z,12.93
2018-09-25T05:26:49.476Z,13.10
2018-09-25T05:29:22.971Z,12.83
2018-09-25T05:31:56.404Z,12.20
2018-09-25T05:34:29.889Z,10.50
2018-09-25T05:37:03.377Z,10.30
2018-09-25T05:39:36.871Z,11.37
2018-09-25T05:42:10.375Z,11.00
2018-09-25T05:44:43.962Z,11.27
2018-09-25T05:47:17.539Z,10.10
2018-09-25T05:49:51.089Z,11.47
2018-09-25T05:52:24.641Z,11.10
2018-09-25T05:54:58.122Z,10.50
2018-09-25T05:57:31.675Z,11.23
2018-09-25T06:00:05.252Z,11.73
2018-09-25T06:02:38.766Z,12.33
2018-09-25T06:05:12.674Z,12.10
2018-09-25T06:07:46.057Z,13.03
2018-09-25T06:10:19.572Z,11.47
2018-09-25T06:12:53.014Z,12.10
2018-09-25T06:15:26.464Z,12.30
2018-09-25T06:17:59.881Z,12.53
2018-09-25T06:20:33.368Z,13.70
2018-09-25T06:23:07.028Z,14.60
2018-09-25T06:25:40.451Z,15.13
2018-09-25T06:28:13.879Z,14.80
2018-09-25T06:30:47.448Z,15.03
2018-09-25T06:33:20.924Z,15.37
2018-09-25T06:35:54.483Z,16.93
2018-09-25T06:38:27.960Z,16.37
2018-09-25T06:41:01.474Z,14.90
2018-09-25T06:43:34.917Z,14.27
2018-09-25T06:46:08.400Z,13.80
2018-09-25T06:48:41.846Z,14.13
2018-09-25T06:51:15.347Z,14.40
2018-09-25T06:53:48.896Z,14.07
2018-09-25T06:56:22.397Z,15.00
2018-09-25T06:58:55.846Z,16.70
2018-09-25T07:01:29.321Z,16.77
2018-09-25T07:04:02.765Z,16.60
2018-09-25T07:06:36.351Z,18.53
2018-09-25T07:09:11.993Z,18.10
2018-09-25T07:11:45.442Z,18.60
2018-09-25T07:14:18.928Z,17.60
2018-09-25T07:16:52.395Z,18.60
2018-09-25T07:19:25.930Z,19.33
2018-09-25T07:21:59.394Z,18.20
2018-09-25T07:24:32.970Z,17.47
2018-09-25T07:27:06.376Z,17.07
2018-09-25T07:29:39.827Z,16.83
2018-09-25T07:32:13.276Z,15.93
2018-09-25T07:34:46.787Z,16.30
2018-09-25T07:37:20.241Z,15.60
2018-09-25T07:39:53.725Z,15.67
2018-09-25T07:42:27.254Z,15.97
2018-09-25T07:45:00.799Z,16.80
2018-09-25T07:47:40.895Z,16.43
2018-09-25T07:50:14.303Z,17.47
2018-09-25T07:55:26.385Z,17.67
2018-09-25T07:57:59.791Z,16.77
2018-09-25T08:00:33.300Z,17.93
2018-09-25T08:03:06.802Z,17.70
2018-09-25T08:05:40.336Z,16.50
2018-09-25T08:08:13.780Z,17.20
2018-09-25T08:10:47.338Z,17.37
2018-09-25T08:13:20.794Z,17.57
2018-09-25T08:15:54.228Z,17.83
2018-09-25T08:18:27.686Z,18.83
2018-09-25T08:21:01.240Z,18.50
2018-09-25T08:23:34.771Z,20.50
2018-09-25T08:26:08.204Z,18.73
2018-09-25T08:28:41.695Z,19.60
2018-09-25T08:31:15.176Z,19.33
2018-09-25T08:33:48.736Z,19.37
2018-09-25T08:36:22.259Z,19.07
2018-09-25T08:38:55.880Z,18.23
2018-09-25T08:41:29.385Z,17.37
2018-09-25T08:44:02.876Z,19.30
2018-09-25T08:46:36.428Z,18.87
2018-09-25T08:49:09.875Z,18.10
2018-09-25T08:51:43.315Z,18.30
2018-09-25T08:54:16.756Z,16.07
2018-09-25T08:56:50.175Z,16.80
2018-09-25T08:59:23.650Z,16.10
2018-09-25T09:01:57.107Z,15.63
2018-09-25T09:04:30.666Z,17.40
2018-09-25T09:07:04.175Z,17.13
2018-09-25T09:09:37.636Z,16.47
2018-09-25T09:12:11.083Z,14.50
2018-09-25T09:14:44.565Z,15.27
2018-09-25T09:17:18.076Z,14.00
2018-09-25T09:19:51.652Z,13.90
2018-09-25T09:22:25.176Z,14.57
2018-09-25T09:24:58.620Z,12.70
2018-09-25T09:27:32.141Z,11.30
2018-09-25T09:30:05.734Z,12.83
2018-09-25T09:32:39.351Z,13.37
2018-09-25T09:35:12.879Z,13.10
2018-09-25T09:37:46.187Z,11.60
2018-09-25T09:40:19.682Z,11.70
2018-09-25T09:42:53.164Z,9.50
2018-09-25T09:45:26.695Z,10.50
2018-09-25T09:48:00.253Z,9.43
2018-09-25T09:50:33.782Z,9.90
2018-09-25T09:53:07.164Z,9.50
2018-09-25T09:55:40.627Z,8.80
2018-09-25T09:58:14.053Z,8.23
2018-09-25T10:00:47.578Z,8.17
2018-09-25T10:03:21.142Z,7.23
2018-09-25T10:05:54.576Z,7.50
2018-09-25T10:08:28.086Z,8.50
2018-09-25T10:11:01.379Z,7.90
2018-09-25T10:13:34.805Z,7.03
2018-09-25T10:16:08.311Z,7.47
2018-09-25T10:18:41.798Z,7.70
2018-09-25T10:21:15.206Z,7.63
2018-09-25T10:23:48.681Z,8.50
2018-09-25T10:26:22.220Z,8.00
2018-09-25T10:28:55.743Z,7.20
2018-09-25T10:31:29.298Z,7.90
2018-09-25T10:34:02.826Z,8.10
2018-09-25T10:36:36.252Z,8.03
2018-09-25T10:39:11.707Z,7.40
2018-09-25T10:41:45.268Z,6.93
2018-09-25T10:44:18.694Z,7.13
2018-09-25T10:46:52.155Z,6.87
2018-09-25T10:49:25.660Z,5.80
2018-09-25T10:51:59.146Z,6.50
2018-09-25T10:54:32.583Z,6.30
2018-09-25T10:57:06.168Z,6.47
2018-09-25T10:59:39.707Z,5.13
2018-09-25T11:02:13.202Z,6.10
2018-09-25T11:04:46.658Z,5.23
2018-09-25T11:07:20.083Z,5.73
2018-09-25T11:09:53.627Z,5.30
2018-09-25T11:12:27.178Z,5.53
2018-09-25T11:15:00.744Z,4.40
2018-09-25T11:17:34.262Z,5.00
2018-09-25T11:20:07.767Z,5.97
2018-09-25T11:22:41.256Z,6.30
2018-09-25T11:25:14.655Z,6.50
2018-09-25T11:27:48.074Z,5.47
2018-09-25T11:30:21.569Z,5.90
2018-09-25T11:32:55.080Z,6.93
2018-09-25T11:35:28.732Z,6.00
2018-09-25T11:38:02.171Z,5.67
2018-09-25T11:40:35.701Z,5.60
2018-09-25T11:43:09.194Z,6.23
2018-09-25T11:45:42.633Z,5.83
2018-09-25T11:48:16.094Z,6.60
2018-09-25T11:50:49.511Z,5.57
2018-09-25T11:53:22.935Z,5.13
2018-09-25T11:55:56.492Z,5.13
2018-09-25T11:58:29.995Z,6.50
2018-09-25T12:01:03.435Z,6.90
2018-09-25T12:03:36.963Z,6.30
2018-09-25T12:06:10.446Z,7.00
2018-09-25T12:08:43.935Z,6.70
2018-09-25T12:11:17.418Z,6.80
2018-09-25T12:13:51.008Z,5.90
2018-09-25T12:16:24.571Z,6.00
2018-09-25T12:18:58.024Z,6.30
2018-09-25T12:21:31.492Z,5.90
2018-09-25T12:24:04.888Z,6.30
2018-09-25T12:26:38.346Z,6.50
2018-09-25T12:29:11.773Z,5.60
2018-09-25T12:31:45.319Z,6.00
2018-09-25T12:34:18.799Z,6.00
2018-09-25T12:36:52.351Z,6.07
2018-09-25T12:39:25.754Z,6.80
2018-09-25T12:41:59.202Z,6.97
2018-09-25T12:44:32.741Z,6.20
2018-09-25T12:47:06.320Z,6.40
2018-09-25T12:49:39.885Z,6.80
2018-09-25T12:52:13.434Z,6.57
2018-09-25T12:54:47.032Z,6.60
2018-09-25T12:57:20.626Z,6.53
2018-09-25T12:59:54.328Z,6.40
2018-09-25T13:02:27.828Z,6.60
2018-09-25T13:05:02.179Z,6.70
2018-09-25T13:07:35.959Z,6.07
2018-09-25T13:10:09.551Z,6.27
2018-09-25T13:12:42.955Z,6.70
2018-09-25T13:15:16.435Z,6.07
2018-09-25T13:17:49.947Z,5.80
2018-09-25T13:20:23.472Z,6.10
2018-09-25T13:22:57.008Z,6.43
2018-09-25T13:25:30.647Z,6.80
2018-09-25T13:28:04.050Z,5.80
2018-09-25T13:30:37.648Z,6.20
2018-09-25T13:33:11.347Z,5.77
2018-09-25T13:35:44.864Z,6.20
2018-09-25T13:38:18.259Z,6.00
2018-09-25T13:40:51.746Z,5.23
2018-09-25T13:43:25.301Z,5.57
2018-09-25T13:45:58.785Z,4.30
2018-09-25T13:48:32.398Z,5.33
2018-09-25T13:51:05.959Z,4.80
2018-09-25T13:53:39.299Z,5.27
2018-09-25T13:56:12.830Z,5.10
2018-09-25T13:58:46.176Z,5.33
2018-09-25T14:01:19.693Z,5.07
2018-09-25T14:03:53.233Z,5.20
2018-09-25T14:06:26.677Z,5.10
2018-09-25T14:09:00.146Z,5.13
2018-09-25T14:11:33.708Z,5.13
2018-09-25T14:14:07.263Z,4.80
2018-09-25T14:16:40.724Z,4.60
2018-09-25T14:19:14.299Z,4.73
2018-09-25T14:21:47.765Z,4.77
2018-09-25T14:24:21.302Z,5.47
2018-09-25T14:26:54.812Z,5.53
2018-09-25T14:29:28.243Z,5.40
2018-09-25T14:32:01.736Z,6.10
2018-09-25T14:34:35.297Z,6.30
2018-09-25T14:37:08.866Z,6.03
2018-09-25T14:39:42.286Z,5.80
2018-09-25T14:42:15.757Z,6.00
2018-09-25T14:44:49.227Z,6.30
2018-09-25T14:47:22.731Z,6.43
2018-09-25T14:49:56.322Z,5.80
2018-09-25T14:52:29.781Z,5.90
2018-09-25T14:55:03.324Z,5.90
2018-09-25T14:57:36.751Z,6.10
2018-09-25T15:00:10.631Z,5.33
2018-09-25T15:02:44.011Z,6.00
2018-09-25T15:05:17.447Z,5.77
2018-09-25T15:07:50.924Z,5.30
2018-09-25T15:10:24.492Z,5.60
2018-09-25T15:12:57.965Z,6.20
2018-09-25T15:15:31.583Z,5.73
2018-09-25T15:18:05.268Z,5.40
2018-09-25T15:20:38.895Z,5.70
2018-09-25T15:23:12.354Z,5.00
2018-09-25T15:25:45.908Z,5.40
2018-09-25T15:28:19.462Z,5.30
2018-09-25T15:30:53.044Z,5.63
2018-09-25T15:33:26.479Z,5.13
2018-09-25T15:35:59.980Z,5.83
2018-09-25T15:38:33.495Z,5.70
2018-09-25T15:41:07.049Z,5.70
2018-09-25T15:43:40.568Z,5.20
2018-09-25T15:46:13.994Z,5.40
2018-09-25T15:48:47.472Z,5.43
2018-09-25T15:51:20.913Z,5.13
2018-09-25T15:53:54.387Z,5.27
2018-09-25T15:56:27.956Z,5.20
2018-09-25T15:59:01.371Z,5.53
2018-09-25T16:01:34.864Z,4.70
2018-09-25T16:04:08.292Z,5.00
2018-09-25T16:06:41.867Z,4.70
2018-09-25T16:09:15.347Z,5.37
2018-09-25T16:11:48.897Z,4.90
2018-09-25T16:14:22.407Z,5.00
2018-09-25T16:16:56.076Z,5.50
2018-09-25T16:19:30.005Z,5.70
2018-09-25T16:22:04.225Z,5.57
2018-09-25T16:24:38.662Z,6.03
2018-09-25T16:27:12.253Z,6.00
2018-09-25T16:29:47.460Z,5.70
2018-09-25T16:32:21.610Z,5.50
2018-09-25T16:34:55.488Z,5.37
2018-09-25T16:37:29.015Z,4.60
2018-09-25T16:40:03.333Z,5.60
2018-09-25T16:42:36.957Z,5.80
2018-09-25T16:45:10.943Z,5.50
2018-09-25T16:47:44.540Z,5.60
2018-09-25T16:50:18.195Z,5.27
2018-09-25T16:52:52.325Z,5.50
2018-09-25T16:55:26.042Z,5.53
2018-09-25T16:58:00.609Z,5.80
2018-09-25T17:00:34.198Z,5.70
2018-09-25T17:03:07.954Z,5.30
2018-09-25T17:05:41.501Z,5.17
2018-09-25T17:08:15.056Z,5.20
2018-09-25T17:10:48.555Z,5.70
2018-09-25T17:13:22.343Z,5.00
2018-09-25T17:15:55.675Z,5.30
2018-09-25T17:18:29.246Z,5.43
2018-09-25T17:21:02.736Z,5.20
2018-09-25T17:23:36.182Z,5.10
2018-09-25T17:26:09.779Z,5.60
2018-09-25T17:28:43.576Z,5.80
2018-09-25T17:31:16.967Z,6.83
2018-09-25T17:33:50.443Z,6.63
2018-09-25T17:36:23.950Z,6.50
2018-09-25T17:38:57.412Z,6.37
2018-09-25T17:41:31.017Z,6.20
2018-09-25T17:44:04.399Z,6.20
2018-09-25T17:46:37.961Z,6.50
2018-09-25T17:49:11.835Z,5.73
2018-09-25T17:51:45.386Z,6.10
2018-09-25T17:54:18.843Z,6.10
2018-09-25T17:56:52.295Z,6.03
2018-09-25T17:59:25.756Z,6.73
2018-09-25T18:01:59.335Z,7.57
2018-09-25T18:04:32.940Z,7.27
2018-09-25T18:07:06.671Z,7.17
2018-09-25T18:09:41.076Z,7.13
2018-09-25T18:12:14.593Z,6.50
2018-09-25T18:14:49.152Z,7.00
2018-09-25T18:17:22.623Z,7.43
2018-09-25T18:19:56.294Z,7.10
2018-09-25T18:22:29.857Z,7.10
2018-09-25T18:25:03.374Z,7.43
2018-09-25T18:27:36.882Z,7.47
2018-09-25T18:30:10.460Z,6.70
2018-09-25T18:32:44.053Z,6.40
2018-09-25T18:35:17.659Z,7.23
2018-09-25T18:37:51.189Z,6.63
2018-09-25T18:40:24.849Z,7.53
2018-09-25T18:42:58.310Z,7.73
2018-09-25T18:45:31.820Z,8.33
2018-09-25T18:48:05.401Z,8.07
2018-09-25T18:50:39.085Z,8.53
2018-09-25T18:53:12.511Z,7.87
2018-09-25T18:55:46.108Z,7.50
2018-09-25T18:58:19.691Z,8.03
2018-09-25T19:00:54.023Z,8.23
2018-09-25T19:03:27.907Z,8.17
2018-09-25T19:06:01.910Z,7.83
2018-09-25T19:08:35.497Z,7.87
2018-09-25T19:11:09.158Z,8.03
2018-09-25T19:13:42.504Z,7.70
2018-09-25T19:16:15.979Z,8.57
2018-09-25T19:18:49.487Z,8.30
2018-09-25T19:21:23.035Z,8.50
2018-09-25T19:23:57.748Z,8.43
2018-09-25T19:26:31.271Z,8.37
2018-09-25T19:29:04.872Z,7.97
2018-09-25T19:31:38.512Z,8.93
2018-09-25T19:34:12.626Z,8.60
2018-09-25T19:36:47.120Z,9.20
2018-09-25T19:39:21.528Z,9.50
2018-09-25T19:41:55.241Z,9.50
2018-09-25T19:44:28.746Z,11.03
2018-09-25T19:47:02.228Z,11.03
2018-09-25T19:49:35.720Z,11.17
2018-09-25T19:52:09.258Z,11.27
2018-09-25T19:54:42.616Z,10.27
2018-09-25T19:57:16.567Z,9.13
2018-09-25T19:59:50.226Z,9.07
2018-09-25T20:02:24.379Z,8.30
2018-09-25T20:04:57.796Z,8.60
2018-09-25T20:07:31.367Z,8.37
2018-09-25T20:10:04.843Z,8.40
2018-09-25T20:12:38.837Z,9.07
2018-09-25T20:15:12.189Z,8.90
2018-09-25T20:17:45.675Z,7.87
2018-09-25T20:20:19.363Z,8.87
2018-09-25T20:22:52.844Z,8.33
2018-09-25T20:25:26.227Z,8.73
2018-09-25T20:27:59.746Z,8.23
2018-09-25T20:30:33.279Z,8.60
2018-09-25T20:33:06.820Z,8.50
2018-09-25T20:35:40.287Z,8.30
2018-09-25T20:38:13.737Z,8.10
2018-09-25T20:40:47.379Z,8.43
2018-09-25T20:43:21.037Z,7.93
2018-09-25T20:45:54.615Z,8.30
2018-09-25T20:48:28.148Z,8.10
2018-09-25T20:51:01.759Z,8.13
2018-09-25T20:53:35.312Z,8.20
2018-09-25T20:56:08.675Z,7.73
2018-09-25T20:58:43.191Z,7.67
2018-09-25T21:01:16.623Z,7.87
2018-09-25T21:03:50.094Z,8.10
2018-09-25T21:06:23.624Z,7.33
2018-09-25T21:08:57.143Z,8.50
2018-09-25T21:11:30.656Z,7.47
2018-09-25T21:14:04.182Z,7.37
2018-09-25T21:16:37.623Z,7.60
2018-09-25T21:19:11.157Z,7.63
2018-09-25T21:21:44.664Z,7.50
2018-09-25T21:24:18.080Z,7.67
2018-09-25T21:26:51.652Z,6.70
2018-09-25T21:29:24.991Z,6.63
2018-09-25T21:31:58.582Z,6.73
2018-09-25T21:34:32.002Z,7.40
2018-09-25T21:37:05.476Z,6.77
2018-09-25T21:39:39.064Z,6.63
2018-09-25T21:42:12.627Z,6.83
2018-09-25T21:44:46.160Z,7.03
2018-09-25T21:47:19.639Z,7.47
2018-09-25T21:49:53.114Z,7.30
2018-09-25T21:52:26.647Z,7.70
2018-09-25T21:55:00.075Z,7.50
2018-09-25T21:57:33.760Z,6.63
2018-09-25T22:00:07.052Z,7.63
2018-09-25T22:02:40.498Z,8.40
2018-09-25T22:05:13.953Z,8.17
2018-09-25T22:07:47.494Z,6.70
2018-09-25T22:10:21.031Z,7.37
2018-09-25T22:12:54.443Z,7.40
2018-09-25T22:15:27.960Z,7.90
2018-09-25T22:18:01.582Z,7.87
2018-09-25T22:20:34.871Z,9.00
2018-09-25T22:23:08.337Z,8.53
2018-09-25T22:25:41.768Z,8.23
2018-09-25T22:28:15.287Z,8.50
2018-09-25T22:30:48.580Z,8.43
2018-09-25T22:33:22.052Z,7.73
2018-09-25T22:35:55.507Z,7.97
2018-09-25T22:38:29.076Z,7.30
2018-09-25T22:41:02.491Z,7.83
2018-09-25T22:43:36.100Z,7.83
2018-09-25T22:46:09.579Z,7.73
2018-09-25T22:48:43.195Z,8.00
2018-09-25T22:51:16.571Z,8.23
2018-09-25T22:53:50.198Z,7.67
2018-09-25T22:56:23.676Z,7.73
2018-09-25T22:58:57.152Z,7.37
2018-09-25T23:01:30.487Z,8.23
2018-09-25T23:04:04.047Z,7.90
2018-09-25T23:06:37.533Z,7.87
2018-09-25T23:09:13.550Z,7.63
2018-09-25T23:11:47.512Z,7.30
2018-09-25T23:14:21.047Z,7.07
2018-09-25T23:16:54.583Z,7.80
2018-09-25T23:19:28.002Z,7.27
2018-09-25T23:22:01.455Z,7.50
2018-09-25T23:24:34.940Z,6.90
2018-09-25T23:27:08.368Z,6.73
2018-09-25T23:29:41.875Z,6.93
2018-09-25T23:32:15.452Z,7.07
2018-09-25T23:34:48.932Z,6.80
2018-09-25T23:37:22.530Z,6.90
2018-09-25T23:40:26.016Z,7.07
2018-09-25T23:43:01.297Z,7.33
2018-09-25T23:45:34.491Z,6.80
2018-09-25T23:48:09.752Z,6.60
2018-09-25T23:50:43.188Z,7.23
2018-09-25T23:53:21.612Z,7.50
2018-09-25T23:55:57.721Z,7.20
2018-09-25T23:58:30.310Z,6.60
